createdAt,value
2022-08-25T00:01:32.811Z,22.20
2022-08-25T00:03:36.057Z,22.20
2022-08-25T00:05:42.407Z,22.10
2022-08-25T00:07:47.341Z,22.10
2022-08-25T00:09:50.667Z,22.00
2022-08-25T00:11:53.525Z,21.90
2022-08-25T00:13:57.703Z,21.80
2022-08-25T00:16:00.497Z,21.70
2022-08-25T00:18:03.484Z,21.70
2022-08-25T00:20:10.144Z,21.50
2022-08-25T00:22:12.903Z,21.40
2022-08-25T00:24:17.749Z,21.40
2022-08-25T00:26:22.632Z,21.30
2022-08-25T00:28:25.337Z,21.30
2022-08-25T00:30:28.294Z,21.20
2022-08-25T00:32:31.052Z,21.20
2022-08-25T00:34:35.014Z,21.10
2022-08-25T00:36:37.802Z,21.00
2022-08-25T00:38:40.516Z,21.00
2022-08-25T00:40:44.569Z,21.00
2022-08-25T00:42:47.345Z,21.00
2022-08-25T00:44:50.120Z,21.00
2022-08-25T00:46:54.612Z,21.00
2022-08-25T00:49:00.176Z,21.10
2022-08-25T00:51:02.975Z,21.10
2022-08-25T00:53:06.001Z,21.10
2022-08-25T00:55:11.890Z,21.20
2022-08-25T00:57:17.131Z,21.20
2022-08-25T00:59:21.852Z,21.20
2022-08-25T01:01:24.637Z,21.20
2022-08-25T01:03:33.038Z,21.30
2022-08-25T01:05:36.263Z,21.20
2022-08-25T01:07:39.099Z,21.20
2022-08-25T01:09:41.877Z,21.20
2022-08-25T01:11:45.024Z,21.20
2022-08-25T01:13:55.210Z,21.20
2022-08-25T01:15:57.998Z,21.20
2022-08-25T01:18:01.087Z,21.10
2022-08-25T01:20:04.399Z,21.10
2022-08-25T01:22:08.527Z,21.00
2022-08-25T01:24:12.411Z,20.90
2022-08-25T01:26:16.966Z,20.90
2022-08-25T01:28:19.949Z,20.80
2022-08-25T01:30:22.742Z,20.70
2022-08-25T01:32:25.721Z,20.60
2022-08-25T01:34:29.768Z,20.50
2022-08-25T01:36:33.100Z,20.40
2022-08-25T01:38:37.164Z,20.40
2022-08-25T01:40:40.621Z,20.30
2022-08-25T01:42:47.635Z,20.30
2022-08-25T01:44:50.331Z,20.20
2022-08-25T01:46:53.104Z,20.20
2022-08-25T01:48:55.807Z,20.10
2022-08-25T01:50:58.684Z,20.00
2022-08-25T01:53:03.935Z,20.00
2022-08-25T01:55:08.831Z,19.80
2022-08-25T01:57:11.588Z,19.80
2022-08-25T01:59:16.099Z,19.70
2022-08-25T02:01:26.606Z,19.70
2022-08-25T02:03:29.659Z,19.70
2022-08-25T02:05:35.214Z,19.60
2022-08-25T02:07:38.392Z,19.60
2022-08-25T02:09:41.798Z,19.60
2022-08-25T02:11:46.847Z,19.50
2022-08-25T02:13:49.553Z,19.50
2022-08-25T02:15:54.027Z,19.40
2022-08-25T02:17:57.169Z,19.40
2022-08-25T02:19:59.874Z,19.40
2022-08-25T02:22:02.632Z,19.40
2022-08-25T02:24:06.345Z,19.20
2022-08-25T02:26:09.813Z,19.10
2022-08-25T02:28:13.871Z,19.00
2022-08-25T02:30:16.868Z,19.00
2022-08-25T02:32:19.587Z,18.90
2022-08-25T02:34:22.346Z,19.00
2022-08-25T02:36:25.048Z,18.90
2022-08-25T02:38:28.395Z,19.00
2022-08-25T02:40:31.227Z,19.00
2022-08-25T02:42:33.992Z,19.00
2022-08-25T02:44:38.035Z,19.00
2022-08-25T02:46:40.755Z,19.00
2022-08-25T02:48:43.484Z,19.00
2022-08-25T02:50:47.960Z,19.00
2022-08-25T02:52:51.950Z,19.00
2022-08-25T02:54:55.472Z,19.00
2022-08-25T02:56:58.205Z,18.90
2022-08-25T02:59:01.112Z,18.90
2022-08-25T03:01:05.476Z,18.80
2022-08-25T03:03:08.281Z,18.80
2022-08-25T03:05:11.693Z,18.70
2022-08-25T03:07:14.444Z,18.70
2022-08-25T03:09:18.122Z,18.70
2022-08-25T03:11:20.899Z,18.70
2022-08-25T03:13:23.624Z,18.70
2022-08-25T03:15:27.588Z,18.70
2022-08-25T03:17:35.591Z,18.80
2022-08-25T03:19:38.732Z,18.80
2022-08-25T03:21:41.447Z,18.80
2022-08-25T03:23:44.234Z,18.70
2022-08-25T03:26:04.559Z,18.60
2022-08-25T03:28:07.831Z,18.50
2022-08-25T03:30:11.984Z,18.40
2022-08-25T03:32:14.712Z,18.40
2022-08-25T03:34:19.327Z,18.40
2022-08-25T03:36:22.040Z,18.50
2022-08-25T03:38:25.275Z,18.40
2022-08-25T03:40:28.158Z,18.40
2022-08-25T03:42:30.926Z,18.40
2022-08-25T03:44:33.638Z,18.40
2022-08-25T03:46:39.026Z,18.30
2022-08-25T03:48:41.736Z,18.30
2022-08-25T03:50:51.688Z,18.20
2022-08-25T03:52:55.404Z,18.20
2022-08-25T03:54:58.352Z,18.20
2022-08-25T03:57:01.105Z,18.20
2022-08-25T03:59:04.005Z,18.20
2022-08-25T04:01:06.768Z,18.30
2022-08-25T04:03:09.552Z,18.30
2022-08-25T04:05:12.287Z,18.20
2022-08-25T04:07:20.324Z,18.20
2022-08-25T04:09:23.176Z,18.00
2022-08-25T04:11:26.046Z,18.00
2022-08-25T04:13:29.165Z,17.90
2022-08-25T04:15:31.871Z,17.90
2022-08-25T04:17:34.612Z,17.90
2022-08-25T04:19:38.160Z,18.00
2022-08-25T04:21:40.983Z,18.10
2022-08-25T04:23:45.927Z,18.10
2022-08-25T04:25:48.626Z,18.20
2022-08-25T04:27:51.464Z,18.20
2022-08-25T04:29:54.732Z,18.30
2022-08-25T04:31:57.491Z,18.30
2022-08-25T04:34:02.285Z,18.30
2022-08-25T04:36:11.407Z,18.40
2022-08-25T04:38:14.863Z,18.40
2022-08-25T04:40:19.192Z,18.50
2022-08-25T04:42:26.963Z,18.50
2022-08-25T04:44:30.125Z,18.60
2022-08-25T04:46:34.060Z,18.60
2022-08-25T04:48:36.867Z,18.60
2022-08-25T04:50:40.055Z,18.70
2022-08-25T04:52:42.801Z,18.70
2022-08-25T04:54:46.288Z,18.70
2022-08-25T04:56:50.481Z,18.80
2022-08-25T04:58:57.419Z,18.80
2022-08-25T05:01:03.182Z,18.80
2022-08-25T05:03:06.559Z,18.90
2022-08-25T05:05:09.298Z,18.90
2022-08-25T05:07:12.011Z,19.00
2022-08-25T05:09:14.760Z,19.00
2022-08-25T05:11:23.908Z,19.00
2022-08-25T05:13:28.126Z,19.00
2022-08-25T05:15:50.896Z,19.00
2022-08-25T05:17:55.966Z,19.10
2022-08-25T05:19:58.912Z,19.10
2022-08-25T05:22:01.632Z,19.20
2022-08-25T05:24:05.031Z,19.20
2022-08-25T05:26:10.748Z,19.30
2022-08-25T05:28:15.757Z,19.30
2022-08-25T05:30:20.152Z,19.30
2022-08-25T05:32:23.168Z,19.40
2022-08-25T05:34:25.879Z,19.40
2022-08-25T05:36:29.473Z,19.60
2022-08-25T05:38:32.181Z,19.60
2022-08-25T05:40:34.932Z,19.70
2022-08-25T05:42:39.075Z,19.70
2022-08-25T05:44:43.045Z,19.80
2022-08-25T05:46:47.215Z,19.80
2022-08-25T05:48:50.040Z,19.90
2022-08-25T05:50:53.137Z,19.90
2022-08-25T05:52:55.927Z,20.00
2022-08-25T05:54:58.640Z,20.00
2022-08-25T05:57:01.399Z,20.00
2022-08-25T05:59:08.711Z,20.10
2022-08-25T06:01:37.449Z,20.10
2022-08-25T06:03:41.577Z,20.10
2022-08-25T06:05:44.343Z,20.20
2022-08-25T06:07:47.404Z,20.30
2022-08-25T06:09:50.265Z,20.40
2022-08-25T06:11:55.089Z,20.30
2022-08-25T06:13:58.139Z,20.40
2022-08-25T06:16:01.100Z,20.50
2022-08-25T06:18:03.926Z,20.50
2022-08-25T06:20:09.891Z,20.60
2022-08-25T06:22:12.928Z,20.70
2022-08-25T06:24:15.968Z,20.80
2022-08-25T06:26:20.933Z,20.80
2022-08-25T06:28:24.091Z,20.90
2022-08-25T06:30:28.962Z,21.00
2022-08-25T06:32:32.391Z,21.10
2022-08-25T06:34:35.145Z,21.40
2022-08-25T06:36:39.225Z,21.40
2022-08-25T06:38:42.028Z,21.50
2022-08-25T06:40:44.753Z,21.50
2022-08-25T06:42:49.259Z,21.70
2022-08-25T06:44:51.992Z,21.90
2022-08-25T06:46:54.801Z,22.00
2022-08-25T06:48:57.700Z,22.00
2022-08-25T06:51:00.416Z,22.20
2022-08-25T06:53:04.781Z,22.30
2022-08-25T06:55:07.853Z,22.20
2022-08-25T06:57:10.614Z,22.20
2022-08-25T06:59:13.327Z,22.50
2022-08-25T07:01:20.554Z,22.60
2022-08-25T07:05:43.577Z,23.20
2022-08-25T07:07:47.393Z,23.30
2022-08-25T07:09:51.436Z,23.50
2022-08-25T07:11:54.201Z,23.70
2022-08-25T07:13:56.911Z,23.80
2022-08-25T07:15:59.645Z,24.00
2022-08-25T07:18:02.443Z,24.00
2022-08-25T07:20:09.588Z,24.00
2022-08-25T07:22:16.571Z,24.00
2022-08-25T07:24:19.301Z,24.30
2022-08-25T07:26:37.366Z,24.50
2022-08-25T07:28:47.401Z,24.50
2022-08-25T07:30:51.802Z,24.50
2022-08-25T07:33:06.368Z,24.80
2022-08-25T07:35:19.485Z,24.90
2022-08-25T07:37:45.449Z,24.70
2022-08-25T07:39:45.645Z,24.80
2022-08-25T07:41:52.219Z,24.90
2022-08-25T07:43:55.330Z,25.20
2022-08-25T07:45:58.139Z,25.60
2022-08-25T07:48:01.571Z,25.70
2022-08-25T07:50:05.180Z,25.80
2022-08-25T07:52:08.986Z,26.10
2022-08-25T07:54:11.882Z,26.00
2022-08-25T07:56:15.754Z,26.10
2022-08-25T07:58:20.038Z,26.20
2022-08-25T08:00:22.985Z,26.30
2022-08-25T08:02:27.289Z,26.40
2022-08-25T08:04:30.028Z,26.50
2022-08-25T08:06:32.823Z,26.90
2022-08-25T08:08:35.537Z,27.10
2022-08-25T08:11:03.306Z,27.10
2022-08-25T08:13:02.979Z,27.20
2022-08-25T08:15:10.127Z,27.10
2022-08-25T08:17:13.566Z,27.10
2022-08-25T08:19:16.324Z,27.50
2022-08-25T08:21:20.753Z,27.20
2022-08-25T08:23:27.669Z,27.70
2022-08-25T08:25:30.456Z,27.90
2022-08-25T08:27:33.995Z,28.20
2022-08-25T08:29:36.807Z,28.40
2022-08-25T08:31:40.907Z,28.50
2022-08-25T08:33:51.675Z,28.50
2022-08-25T08:35:59.230Z,28.70
2022-08-25T08:38:02.060Z,28.80
2022-08-25T08:40:06.395Z,28.90
2022-08-25T08:42:23.009Z,29.00
2022-08-25T08:44:29.351Z,29.00
2022-08-25T08:46:38.681Z,29.20
2022-08-25T08:48:51.900Z,29.50
2022-08-25T08:51:00.319Z,29.40
2022-08-25T08:53:06.481Z,29.90
2022-08-25T08:55:12.957Z,29.80
2022-08-25T08:57:18.500Z,29.40
2022-08-25T08:59:30.751Z,29.70
2022-08-25T09:01:35.387Z,29.70
2022-08-25T09:03:40.952Z,30.20
2022-08-25T09:05:48.620Z,30.50
2022-08-25T09:07:54.975Z,30.40
2022-08-25T09:09:58.774Z,30.60
2022-08-25T09:12:06.017Z,30.40
2022-08-25T09:14:15.185Z,29.80
2022-08-25T09:16:39.193Z,30.20
2022-08-25T09:18:51.390Z,30.30
2022-08-25T09:21:04.834Z,29.60
2022-08-25T09:23:20.217Z,28.20
2022-08-25T09:25:48.628Z,28.50
2022-08-25T09:27:51.407Z,28.30
2022-08-25T09:30:00.243Z,28.70
2022-08-25T09:32:03.147Z,28.30
2022-08-25T09:34:07.517Z,29.20
2022-08-25T09:36:11.601Z,29.30
2022-08-25T09:38:14.343Z,29.00
2022-08-25T09:40:17.268Z,28.90
2022-08-25T09:42:23.844Z,29.90
2022-08-25T09:44:28.036Z,29.80
2022-08-25T09:46:31.454Z,29.20
2022-08-25T09:48:39.729Z,29.20
2022-08-25T09:50:46.685Z,29.10
2022-08-25T09:52:53.576Z,30.20
2022-08-25T09:54:57.065Z,29.40
2022-08-25T09:57:01.987Z,29.20
2022-08-25T09:59:19.866Z,30.20
2022-08-25T10:01:23.139Z,30.90
2022-08-25T10:03:25.901Z,31.20
2022-08-25T10:05:31.972Z,30.90
2022-08-25T10:07:36.322Z,30.30
2022-08-25T10:09:42.796Z,29.90
2022-08-25T10:11:46.215Z,29.40
2022-08-25T10:13:51.438Z,29.00
2022-08-25T10:16:04.792Z,29.00
2022-08-25T10:18:25.972Z,29.00
2022-08-25T10:20:33.161Z,28.90
2022-08-25T10:22:38.325Z,28.80
2022-08-25T10:24:43.973Z,29.00
2022-08-25T10:26:53.273Z,29.40
2022-08-25T10:29:03.365Z,29.10
2022-08-25T10:31:10.217Z,29.00
2022-08-25T10:33:17.474Z,30.00
2022-08-25T10:35:23.408Z,29.80
2022-08-25T10:37:33.264Z,30.60
2022-08-25T10:39:40.774Z,30.30
2022-08-25T10:41:53.333Z,31.10
2022-08-25T10:44:01.336Z,32.30
2022-08-25T10:46:07.075Z,32.30
2022-08-25T10:48:19.711Z,31.80
2022-08-25T10:50:29.324Z,32.90
2022-08-25T10:52:37.644Z,31.30
2022-08-25T10:54:43.141Z,31.30
2022-08-25T10:56:53.218Z,31.20
2022-08-25T10:59:10.795Z,31.60
2022-08-25T11:01:16.496Z,31.90
2022-08-25T11:03:25.646Z,31.40
2022-08-25T11:05:31.593Z,32.30
2022-08-25T11:07:35.658Z,31.60
2022-08-25T11:09:40.305Z,32.80
2022-08-25T11:11:46.136Z,33.70
2022-08-25T11:13:52.878Z,32.20
2022-08-25T11:18:20.215Z,31.30
2022-08-25T11:20:26.786Z,31.00
2022-08-25T11:22:33.537Z,30.80
2022-08-25T11:24:48.177Z,31.50
2022-08-25T11:26:54.064Z,31.20
2022-08-25T11:29:04.418Z,30.80
2022-08-25T11:31:07.203Z,30.70
2022-08-25T11:33:12.848Z,31.50
2022-08-25T11:35:17.261Z,31.10
2022-08-25T11:37:21.675Z,31.70
2022-08-25T11:39:34.488Z,32.60
2022-08-25T11:41:41.001Z,32.30
2022-08-25T11:43:53.424Z,32.20
2022-08-25T11:46:09.957Z,32.30
2022-08-25T11:48:19.065Z,31.80
2022-08-25T11:50:30.430Z,31.60
2022-08-25T11:52:49.076Z,31.10
2022-08-25T11:54:51.793Z,31.00
2022-08-25T11:57:00.165Z,32.00
2022-08-25T11:59:03.106Z,32.60
2022-08-25T12:01:07.573Z,31.80
2022-08-25T12:03:47.686Z,32.40
2022-08-25T12:06:14.347Z,32.70
2022-08-25T12:08:49.012Z,33.20
2022-08-25T12:11:01.596Z,33.90
2022-08-25T12:13:08.158Z,34.70
2022-08-25T12:15:16.773Z,34.60
2022-08-25T12:17:27.151Z,34.70
2022-08-25T12:19:32.033Z,34.70
2022-08-25T12:21:34.969Z,34.50
2022-08-25T12:23:39.892Z,34.80
2022-08-25T12:25:50.236Z,34.70
2022-08-25T12:27:59.421Z,34.80
2022-08-25T12:30:05.497Z,33.50
2022-08-25T12:32:18.569Z,34.10
2022-08-25T12:34:41.727Z,33.90
2022-08-25T12:36:56.757Z,33.90
2022-08-25T12:39:18.073Z,34.20
2022-08-25T12:41:22.525Z,34.30
2022-08-25T12:43:28.312Z,34.60
2022-08-25T12:45:39.463Z,35.20
2022-08-25T12:47:44.758Z,35.50
2022-08-25T12:49:49.050Z,34.70
2022-08-25T12:51:54.764Z,34.70
2022-08-25T12:54:02.394Z,34.10
2022-08-25T12:56:19.642Z,33.70
2022-08-25T12:58:22.474Z,34.40
2022-08-25T13:00:34.000Z,34.40
2022-08-25T13:02:58.666Z,34.80
2022-08-25T13:05:28.160Z,35.00
2022-08-25T13:07:55.347Z,34.20
2022-08-25T13:10:31.995Z,35.20
2022-08-25T13:12:36.501Z,35.20
2022-08-25T13:14:40.786Z,35.50
2022-08-25T13:16:53.134Z,33.80
2022-08-25T13:18:58.936Z,33.80
2022-08-25T13:21:08.068Z,34.20
2022-08-25T13:23:10.792Z,33.60
2022-08-25T13:25:17.899Z,32.70
2022-08-25T13:27:27.641Z,33.80
2022-08-25T13:29:36.882Z,34.10
2022-08-25T13:31:50.809Z,33.60
2022-08-25T13:33:54.893Z,32.60
2022-08-25T13:36:12.615Z,33.10
2022-08-25T13:38:19.262Z,33.50
2022-08-25T13:40:26.842Z,32.30
2022-08-25T13:42:30.167Z,32.40
2022-08-25T13:44:35.933Z,32.10
2022-08-25T13:46:38.657Z,32.00
2022-08-25T13:48:49.280Z,31.70
2022-08-25T13:50:53.169Z,32.20
2022-08-25T13:52:56.821Z,32.50
2022-08-25T13:55:00.873Z,31.90
2022-08-25T13:57:09.129Z,31.80
2022-08-25T13:59:21.285Z,31.60
2022-08-25T14:01:48.634Z,31.60
2022-08-25T14:03:48.212Z,31.70
2022-08-25T14:05:52.193Z,32.10
2022-08-25T14:08:09.116Z,31.80
2022-08-25T14:10:42.319Z,31.80
2022-08-25T14:12:47.076Z,32.30
2022-08-25T14:14:59.013Z,32.60
2022-08-25T14:17:16.361Z,32.70
2022-08-25T14:19:27.365Z,33.20
2022-08-25T14:21:31.328Z,33.70
2022-08-25T14:23:34.081Z,33.80
2022-08-25T14:25:40.657Z,33.60
2022-08-25T14:28:06.718Z,33.60
2022-08-25T14:30:09.588Z,32.60
2022-08-25T14:32:12.288Z,32.60
2022-08-25T14:34:16.424Z,32.30
2022-08-25T14:36:20.911Z,32.30
2022-08-25T14:38:23.864Z,32.50
2022-08-25T14:40:30.871Z,32.70
2022-08-25T14:42:38.195Z,32.80
2022-08-25T14:44:40.915Z,32.80
2022-08-25T14:46:45.181Z,32.30
2022-08-25T14:48:48.941Z,32.40
2022-08-25T14:50:52.304Z,32.70
2022-08-25T14:52:55.369Z,32.80
2022-08-25T14:55:02.485Z,32.70
2022-08-25T14:57:08.284Z,32.30
2022-08-25T14:59:13.109Z,31.90
2022-08-25T15:01:16.882Z,31.70
2022-08-25T15:03:22.016Z,31.50
2022-08-25T15:05:27.153Z,31.80
2022-08-25T15:07:49.381Z,31.90
2022-08-25T15:09:52.198Z,31.90
2022-08-25T15:11:56.655Z,32.00
2022-08-25T15:14:01.260Z,32.00
2022-08-25T15:16:07.014Z,31.80
2022-08-25T15:18:09.780Z,31.80
2022-08-25T15:20:12.635Z,31.90
2022-08-25T15:22:18.720Z,31.90
2022-08-25T15:24:22.516Z,31.70
2022-08-25T15:26:25.603Z,31.70
2022-08-25T15:28:28.342Z,31.50
2022-08-25T15:30:31.425Z,31.30
2022-08-25T15:32:35.511Z,31.30
2022-08-25T15:34:38.769Z,30.90
2022-08-25T15:36:41.626Z,30.90
2022-08-25T15:38:44.943Z,30.90
2022-08-25T15:40:47.929Z,31.10
2022-08-25T15:42:51.107Z,31.10
2022-08-25T15:44:53.854Z,31.10
2022-08-25T15:46:56.661Z,31.30
2022-08-25T15:49:01.186Z,30.90
2022-08-25T15:51:05.310Z,31.10
2022-08-25T15:53:10.313Z,31.10
2022-08-25T15:55:13.538Z,30.70
2022-08-25T15:57:24.392Z,30.70
2022-08-25T15:59:27.825Z,30.70
2022-08-25T16:01:30.746Z,30.70
2022-08-25T16:03:34.363Z,30.80
2022-08-25T16:05:38.688Z,30.70
2022-08-25T16:07:45.735Z,30.70
2022-08-25T16:09:49.124Z,30.70
2022-08-25T16:11:56.619Z,30.70
2022-08-25T16:14:00.525Z,30.70
2022-08-25T16:16:03.498Z,30.80
2022-08-25T16:18:06.700Z,30.80
2022-08-25T16:20:12.585Z,30.70
2022-08-25T16:22:18.188Z,30.80
2022-08-25T16:24:21.107Z,30.80
2022-08-25T16:26:23.943Z,30.70
2022-08-25T16:28:27.119Z,30.70
2022-08-25T16:30:29.833Z,30.60
2022-08-25T16:32:32.539Z,30.60
2022-08-25T16:34:35.553Z,30.60
2022-08-25T16:36:38.939Z,30.50
2022-08-25T16:38:43.221Z,30.50
2022-08-25T16:40:51.857Z,30.50
2022-08-25T16:42:54.915Z,30.40
2022-08-25T16:44:57.860Z,30.30
2022-08-25T16:47:01.366Z,30.30
2022-08-25T16:49:04.758Z,30.10
2022-08-25T16:51:08.117Z,30.10
2022-08-25T16:53:28.329Z,30.00
2022-08-25T16:55:38.976Z,29.80
2022-08-25T16:57:43.753Z,29.80
2022-08-25T16:59:47.158Z,29.70
2022-08-25T17:01:50.181Z,29.60
2022-08-25T17:03:54.183Z,29.60
2022-08-25T17:05:59.825Z,29.50
2022-08-25T17:08:20.366Z,29.40
2022-08-25T17:10:23.140Z,29.30
2022-08-25T17:12:29.687Z,29.30
2022-08-25T17:14:32.412Z,29.30
2022-08-25T17:16:35.696Z,29.20
2022-08-25T17:18:38.687Z,29.20
2022-08-25T17:20:43.292Z,29.10
2022-08-25T17:22:46.036Z,29.10
2022-08-25T17:24:59.436Z,29.00
2022-08-25T17:27:03.809Z,29.00
2022-08-25T17:29:08.058Z,28.90
2022-08-25T17:31:12.479Z,28.90
2022-08-25T17:33:15.271Z,28.90
2022-08-25T17:35:18.115Z,28.90
2022-08-25T17:37:20.833Z,28.80
2022-08-25T17:39:24.590Z,28.80
2022-08-25T17:41:27.350Z,28.70
2022-08-25T17:43:31.177Z,28.70
2022-08-25T17:45:35.449Z,28.60
2022-08-25T17:47:38.155Z,28.60
2022-08-25T17:49:40.905Z,28.60
2022-08-25T17:51:43.619Z,28.60
2022-08-25T17:53:48.976Z,28.50
2022-08-25T17:55:58.137Z,28.50
2022-08-25T17:58:02.734Z,28.50
2022-08-25T18:00:09.817Z,28.40
2022-08-25T18:02:14.573Z,28.40
2022-08-25T18:04:19.555Z,28.40
2022-08-25T18:06:22.504Z,28.30
2022-08-25T18:08:32.227Z,28.20
2022-08-25T18:10:38.020Z,28.10
2022-08-25T18:12:40.924Z,28.00
2022-08-25T18:14:46.001Z,28.00
2022-08-25T18:16:48.832Z,27.90
2022-08-25T18:18:52.962Z,27.90
2022-08-25T18:20:55.681Z,27.80
2022-08-25T18:22:58.701Z,27.70
2022-08-25T18:25:03.533Z,27.60
2022-08-25T18:27:06.361Z,27.50
2022-08-25T18:29:12.082Z,27.50
2022-08-25T18:31:15.261Z,27.40
2022-08-25T18:33:22.630Z,27.40
2022-08-25T18:35:27.081Z,27.30
2022-08-25T18:37:47.569Z,27.20
2022-08-25T18:40:07.860Z,27.10
2022-08-25T18:42:10.595Z,27.10
2022-08-25T18:44:15.635Z,27.10
2022-08-25T18:46:18.605Z,27.00
2022-08-25T18:48:26.545Z,27.00
2022-08-25T18:50:31.951Z,26.90
2022-08-25T18:52:34.755Z,26.90
2022-08-25T18:54:39.066Z,26.90
2022-08-25T18:56:43.235Z,26.80
2022-08-25T18:58:46.173Z,26.80
2022-08-25T19:00:48.888Z,26.70
2022-08-25T19:02:53.765Z,26.70
2022-08-25T19:04:56.607Z,26.70
2022-08-25T19:07:00.903Z,26.60
2022-08-25T19:09:04.455Z,26.60
2022-08-25T19:11:07.368Z,26.50
2022-08-25T19:13:10.910Z,26.50
2022-08-25T19:15:13.639Z,26.40
2022-08-25T19:17:17.108Z,26.40
2022-08-25T19:19:19.840Z,26.40
2022-08-25T19:21:23.751Z,26.30
2022-08-25T19:23:27.800Z,26.30
2022-08-25T19:25:34.626Z,26.30
2022-08-25T19:27:37.677Z,26.20
2022-08-25T19:29:40.571Z,26.20
2022-08-25T19:31:44.479Z,26.20
2022-08-25T19:33:47.399Z,26.20
2022-08-25T19:35:50.995Z,26.20
2022-08-25T19:37:54.012Z,26.20
2022-08-25T19:39:58.168Z,26.10
2022-08-25T19:42:01.201Z,26.10
2022-08-25T19:44:06.017Z,26.10
2022-08-25T19:46:09.593Z,26.10
2022-08-25T19:48:13.293Z,26.10
2022-08-25T19:50:17.702Z,26.10
2022-08-25T19:52:24.801Z,26.00
2022-08-25T19:54:30.561Z,26.00
2022-08-25T19:56:35.160Z,26.00
2022-08-25T19:58:39.109Z,26.00
2022-08-25T20:00:44.735Z,25.90
2022-08-25T20:02:50.912Z,25.90
2022-08-25T20:04:56.584Z,25.90
2022-08-25T20:06:59.296Z,25.90
2022-08-25T20:09:02.028Z,25.80
2022-08-25T20:11:04.772Z,25.80
2022-08-25T20:13:09.176Z,25.70
2022-08-25T20:15:12.833Z,25.70
2022-08-25T20:17:24.371Z,25.70
2022-08-25T20:19:29.311Z,25.70
2022-08-25T20:21:32.169Z,25.60
2022-08-25T20:23:52.985Z,25.60
2022-08-25T20:25:55.692Z,25.60
2022-08-25T20:27:58.970Z,25.60
2022-08-25T20:30:03.379Z,25.60
2022-08-25T20:32:06.596Z,25.50
2022-08-25T20:34:09.408Z,25.50
2022-08-25T20:36:15.001Z,25.50
2022-08-25T20:38:17.700Z,25.40
2022-08-25T20:40:25.453Z,25.40
2022-08-25T20:42:29.418Z,25.40
2022-08-25T20:44:35.184Z,25.40
2022-08-25T20:46:41.712Z,25.30
2022-08-25T20:48:45.362Z,25.30
2022-08-25T20:50:57.428Z,25.30
2022-08-25T20:53:01.178Z,25.30
2022-08-25T20:55:04.171Z,25.20
2022-08-25T20:57:08.031Z,25.20
2022-08-25T20:59:11.750Z,25.20
2022-08-25T21:01:19.807Z,25.20
2022-08-25T21:03:27.149Z,25.20
2022-08-25T21:05:31.211Z,25.20
2022-08-25T21:07:35.866Z,25.10
2022-08-25T21:09:38.904Z,25.10
2022-08-25T21:11:41.607Z,25.00
2022-08-25T21:13:45.664Z,25.00
2022-08-25T21:15:48.899Z,24.90
2022-08-25T21:17:53.126Z,24.90
2022-08-25T21:19:58.495Z,25.00
2022-08-25T21:22:01.664Z,25.00
2022-08-25T21:24:07.365Z,25.00
2022-08-25T21:26:13.760Z,24.90
2022-08-25T21:28:16.467Z,24.90
2022-08-25T21:30:19.337Z,24.90
2022-08-25T21:32:22.061Z,24.90
2022-08-25T21:34:24.838Z,24.80
2022-08-25T21:36:32.455Z,24.80
2022-08-25T21:38:35.175Z,24.70
2022-08-25T21:40:44.934Z,24.70
2022-08-25T21:42:48.324Z,24.60
2022-08-25T21:44:51.170Z,24.50
2022-08-25T21:46:54.725Z,24.50
2022-08-25T21:48:57.973Z,24.50
2022-08-25T21:51:06.485Z,24.50
2022-08-25T21:53:13.136Z,24.50
2022-08-25T21:55:16.442Z,24.50
2022-08-25T21:57:23.649Z,24.50
2022-08-25T21:59:29.078Z,24.50
2022-08-25T22:01:32.020Z,24.50
2022-08-25T22:03:34.917Z,24.40
2022-08-25T22:05:39.685Z,24.40
2022-08-25T22:07:43.987Z,24.40
2022-08-25T22:09:48.336Z,24.40
2022-08-25T22:11:53.237Z,24.40
2022-08-25T22:13:57.611Z,24.40
2022-08-25T22:16:03.033Z,24.30
2022-08-25T22:18:05.924Z,24.40
2022-08-25T22:20:09.752Z,24.30
2022-08-25T22:22:12.841Z,24.30
2022-08-25T22:24:15.559Z,24.30
2022-08-25T22:26:21.991Z,24.20
2022-08-25T22:28:25.171Z,24.20
2022-08-25T22:30:29.398Z,24.20
2022-08-25T22:32:32.445Z,24.20
2022-08-25T22:34:35.371Z,24.10
2022-08-25T22:36:43.003Z,24.10
2022-08-25T22:38:51.166Z,24.10
2022-08-25T22:40:54.059Z,24.10
2022-08-25T22:42:58.084Z,24.10
2022-08-25T22:45:02.079Z,24.10
2022-08-25T22:47:06.031Z,24.10
2022-08-25T22:49:08.827Z,24.00
2022-08-25T22:51:12.911Z,24.00
2022-08-25T22:53:16.045Z,24.00
2022-08-25T22:55:19.012Z,24.00
2022-08-25T22:57:24.719Z,23.90
2022-08-25T22:59:29.266Z,23.90
2022-08-25T23:01:33.063Z,23.90
2022-08-25T23:03:36.012Z,23.90
2022-08-25T23:05:46.815Z,23.90
2022-08-25T23:07:49.608Z,23.90
2022-08-25T23:09:53.009Z,23.90
2022-08-25T23:11:55.716Z,23.90
2022-08-25T23:14:00.303Z,23.80
2022-08-25T23:16:04.961Z,23.80
2022-08-25T23:18:08.537Z,23.80
2022-08-25T23:20:25.427Z,23.80
2022-08-25T23:22:28.192Z,23.70
2022-08-25T23:24:31.418Z,23.70
2022-08-25T23:26:34.193Z,23.70
2022-08-25T23:28:36.971Z,23.70
2022-08-25T23:30:39.872Z,23.70
2022-08-25T23:32:46.920Z,23.70
2022-08-25T23:34:50.807Z,23.70
2022-08-25T23:36:53.517Z,23.70
2022-08-25T23:38:56.405Z,23.70
2022-08-25T23:40:59.457Z,23.70
2022-08-25T23:43:02.271Z,23.80
2022-08-25T23:45:05.628Z,23.70
2022-08-25T23:47:08.378Z,23.70
2022-08-25T23:49:18.598Z,23.70
2022-08-25T23:51:25.539Z,23.70
2022-08-25T23:53:28.395Z,23.70
2022-08-25T23:55:33.635Z,23.70
2022-08-25T23:57:36.860Z,23.80
2022-08-25T23:59:41.604Z,23.70
